Time;durP1;ratioP1;P1;durP2;ratioP2;P2;SDS_P1;SDS_P2;PMS_P1;PMS_P2;Temp;Humidity;BMP_temperature;BMP_pressure;BME280_temperature;BME280_humidity;BME280_pressure;Samples;Min_cycle;Max_cycle;Signal;HPM_P1;HPM_P2
2022/03/29 00:00:47;;;;;;;11.63;7.80;;;;;;;;;;5137351;27;20777;-90
2022/03/29 00:03:14;;;;;;;13.03;8.20;;;;;;;;;;5134469;27;20462;-89
2022/03/29 00:05:41;;;;;;;12.90;7.50;;;;;;;;;;5137620;27;20973;-93
2022/03/29 00:08:10;;;;;;;15.20;8.53;;;;;;;;;;5134729;27;20462;-92
2022/03/29 00:10:37;;;;;;;15.00;8.70;;;;;;;;;;5137473;27;20454;-90
2022/03/29 00:13:05;;;;;;;14.63;8.53;;;;;;;;;;5134606;27;20473;-89
2022/03/29 00:15:32;;;;;;;14.33;8.53;;;;;;;;;;5132438;27;20458;-90
2022/03/29 00:17:59;;;;;;;14.50;8.57;;;;;;;;;;5137856;27;20441;-89
2022/03/29 00:20:26;;;;;;;14.70;9.53;;;;;;;;;;5137536;27;20451;-90
2022/03/29 00:22:53;;;;;;;12.90;8.57;;;;;;;;;;5133325;27;20919;-89
2022/03/29 00:25:21;;;;;;;10.03;7.03;;;11.30;77.90;;;;;;5137245;27;20485;-89
2022/03/29 00:27:49;;;;;;;13.60;8.87;;;;;;;;;;5132056;27;20439;-91
2022/03/29 00:30:17;;;;;;;11.27;7.60;;;;;;;;;;5136672;27;20984;-90
2022/03/29 00:32:44;;;;;;;11.70;8.60;;;11.40;75.70;;;;;;5136981;27;20447;-91
2022/03/29 00:35:11;;;;;;;12.70;8.17;;;;;;;;;;5137332;27;20458;-89
2022/03/29 00:37:39;;;;;;;11.20;8.50;;;11.50;74.90;;;;;;5136994;27;20436;-95
2022/03/29 00:40:08;;;;;;;12.50;7.90;;;11.30;73.90;;;;;;5131724;27;20447;-91
2022/03/29 00:42:36;;;;;;;14.20;7.93;;;;;;;;;;5133041;27;20446;-90
2022/03/29 00:45:04;;;;;;;14.73;8.13;;;;;;;;;;5136282;27;20466;-92
2022/03/29 00:47:31;;;;;;;12.33;7.90;;;;;;;;;;5137293;27;20442;-94
2022/03/29 00:49:58;;;;;;;13.13;8.80;;;;;;;;;;5137222;27;20435;-91
2022/03/29 00:52:25;;;;;;;13.00;8.47;;;;;;;;;;5136872;27;20856;-91
2022/03/29 00:54:53;;;;;;;11.07;8.67;;;;;;;;;;5136846;27;20525;-91
2022/03/29 00:57:20;;;;;;;10.50;7.47;;;;;;;;;;5129248;27;20455;-93
2022/03/29 00:59:49;;;;;;;10.70;8.20;;;11.70;72.30;;;;;;5135748;27;20534;-91
2022/03/29 01:02:16;;;;;;;15.53;8.30;;;;;;;;;;5136831;27;20442;-90
2022/03/29 01:04:43;;;;;;;22.20;8.40;;;;;;;;;;5136768;27;20844;-91
2022/03/29 01:07:11;;;;;;;13.50;9.07;;;;;;;;;;5133369;27;20554;-89
2022/03/29 01:09:38;;;;;;;13.57;8.40;;;;;;;;;;5132310;27;20454;-91
2022/03/29 01:12:05;;;;;;;14.37;8.80;;;;;;;;;;5136307;27;20474;-90
2022/03/29 01:14:33;;;;;;;13.07;8.80;;;;;;;;;;5132101;27;20860;-90
2022/03/29 01:19:47;;;;;;;13.30;9.07;;;;;;;;;;5136778;27;20418;-91
2022/03/29 01:22:16;;;;;;;15.00;10.03;;;11.30;73.70;;;;;;5136203;27;20913;-89
2022/03/29 01:24:46;;;;;;;14.10;9.70;;;11.20;74.30;;;;;;5136150;27;20450;-89
2022/03/29 01:27:13;;;;;;;13.10;8.87;;;;;;;;;;5136163;27;20470;-90
2022/03/29 01:29:43;;;;;;;13.63;9.10;;;11.20;73.70;;;;;;5132173;27;20490;-93
2022/03/29 01:32:11;;;;;;;15.30;9.80;;;11.30;73.60;;;;;;5130771;27;20423;-92
2022/03/29 01:34:41;;;;;;;13.53;9.30;;;11.50;72.20;;;;;;5125628;27;20470;-90
2022/03/29 01:37:09;;;;;;;13.20;9.10;;;;;;;;;;5136057;27;20863;-90
2022/03/29 01:39:38;;;;;;;13.63;9.27;;;11.60;71.40;;;;;;5135594;27;20954;-93
2022/03/29 01:42:06;;;;;;;11.60;8.60;;;11.50;72.20;;;;;;5135701;27;20441;-89
2022/03/29 01:44:33;;;;;;;13.27;9.30;;;;;;;;;;5126990;27;20801;-89
2022/03/29 01:47:00;;;;;;;16.43;8.87;;;;;;;;;;5135316;27;20490;-89
2022/03/29 01:49:28;;;;;;;14.00;9.47;;;;;;;;;;5135496;27;20447;-90
2022/03/29 01:51:55;;;;;;;16.30;8.10;;;;;;;;;;5135694;27;20446;-94
2022/03/29 01:54:22;;;;;;;15.03;7.90;;;;;;;;;;5135448;27;20439;-92
2022/03/29 01:56:50;;;;;;;17.20;9.00;;;11.50;70.00;;;;;;5131242;27;20455;-90
2022/03/29 01:59:17;;;;;;;13.63;9.33;;;;;;;;;;5082398;27;20451;-94
2022/03/29 02:01:46;;;;;;;10.17;6.90;;;11.40;70.20;;;;;;5132273;27;20435;-93
2022/03/29 02:04:14;;;;;;;16.87;9.77;;;;;;;;;;5135634;27;20919;-92
2022/03/29 02:06:41;;;;;;;13.70;8.50;;;;;;;;;;5134973;27;20481;-92
2022/03/29 02:09:09;;;;;;;13.73;9.13;;;;;;;;;;5135445;27;20899;-88
2022/03/29 02:11:36;;;;;;;11.83;7.87;;;;;;;;;;5135473;27;20863;-91
2022/03/29 02:14:04;;;;;;;11.87;8.27;;;11.40;68.90;;;;;;5133700;27;20442;-93
2022/03/29 02:16:33;;;;;;;9.33;7.57;;;;;;;;;;5130074;27;20818;-90
2022/03/29 02:19:00;;;;;;;14.43;8.20;;;;;;;;;;5127624;28;20458;-93
2022/03/29 02:21:27;;;;;;;12.50;8.83;;;;;;;;;;5135499;28;20433;-92
2022/03/29 02:23:54;;;;;;;12.67;7.67;;;;;;;;;;5135122;28;20443;-89
2022/03/29 02:26:21;;;;;;;17.43;9.33;;;;;;;;;;5131168;28;20474;-88
2022/03/29 02:28:48;;;;;;;11.27;7.83;;;;;;;;;;5134352;28;20450;-93
2022/03/29 02:31:17;;;;;;;13.37;8.40;;;;;;;;;;5131140;28;20458;-90
2022/03/29 02:33:44;;;;;;;10.83;7.50;;;;;;;;;;5135002;28;20454;-91
2022/03/29 02:36:13;;;;;;;13.33;8.30;;;;;;;;;;5135154;28;20442;-92
2022/03/29 02:38:40;;;;;;;10.10;7.70;;;;;;;;;;5134673;28;20442;-91
2022/03/29 02:41:07;;;;;;;11.27;7.87;;;;;;;;;;5135088;28;20443;-89
2022/03/29 02:43:34;;;;;;;13.93;8.90;;;;;;;;;;5126096;28;20465;-90
2022/03/29 02:46:03;;;;;;;10.90;7.83;;;;;;;;;;5134631;28;20479;-94
2022/03/29 02:48:31;;;;;;;12.10;7.77;;;11.50;67.20;;;;;;5131367;28;20492;-94
2022/03/29 02:50:58;;;;;;;10.90;8.27;;;;;;;;;;5134882;28;20439;-92
2022/03/29 02:53:26;;;;;;;10.47;8.07;;;;;;;;;;5130600;28;20924;-93
2022/03/29 02:55:53;;;;;;;13.23;8.47;;;;;;;;;;5131569;28;20455;-89
2022/03/29 02:58:20;;;;;;;13.20;8.93;;;;;;;;;;5130661;28;20454;-92
2022/03/29 03:00:47;;;;;;;14.23;9.23;;;;;;;;;;5129981;28;20439;-91
2022/03/29 03:03:15;;;;;;;11.70;7.70;;;;;;;;;;5134630;28;20474;-90
2022/03/29 03:05:43;;;;;;;10.30;7.13;;;;;;;;;;5134291;28;20541;-93
2022/03/29 03:08:10;;;;;;;13.50;9.00;;;;;;;;;;5134777;28;20432;-91
2022/03/29 03:10:38;;;;;;;11.80;8.40;;;;;;;;;;5134883;28;20442;-88
2022/03/29 03:13:05;;;;;;;11.13;8.20;;;;;;;;;;5134457;28;20449;-88
2022/03/29 03:15:32;;;;;;;10.17;7.70;;;;;;;;;;5133867;28;20438;-92
2022/03/29 03:17:59;;;;;;;13.40;9.00;;;;;;;;;;5134791;28;20431;-90
2022/03/29 03:20:26;;;;;;;12.30;7.87;;;;;;;;;;5130933;28;20415;-93
2022/03/29 03:22:55;;;;;;;12.73;8.10;;;;;;;;;;5134942;28;20688;-93
2022/03/29 03:25:22;;;;;;;12.37;9.87;;;;;;;;;;5137125;27;20423;-93
2022/03/29 03:27:49;;;;;;;12.33;8.80;;;;;;;;;;5135178;27;20919;-89
2022/03/29 03:30:17;;;;;;;14.33;8.40;;;10.80;71.70;;;;;;5137330;27;20459;-89
2022/03/29 03:32:44;;;;;;;11.13;8.07;;;;;;;;;;5138692;27;20820;-93
2022/03/29 03:35:12;;;;;;;15.77;9.63;;;10.70;72.30;;;;;;5138501;27;20446;-93
2022/03/29 03:37:39;;;;;;;19.30;8.37;;;;;;;;;;5135321;27;20463;-92
2022/03/29 03:40:10;;;;;;;15.33;8.70;;;10.50;73.60;;;;;;5135232;27;20957;-94
2022/03/29 03:42:38;;;;;;;10.33;8.27;;;;;;;;;;5138236;27;20431;-90
2022/03/29 03:45:06;;;;;;;14.13;9.83;;;10.30;75.30;;;;;;5137497;27;20451;-89
2022/03/29 03:47:33;;;;;;;12.73;9.10;;;;;;;;;;5134802;27;20535;-91
2022/03/29 03:50:01;;;;;;;12.00;8.40;;;;;;;;;;5134797;27;20439;-94
2022/03/29 03:52:28;;;;;;;17.17;9.20;;;;;;;;;;5137936;27;20426;-92
2022/03/29 03:54:56;;;;;;;11.17;8.57;;;;;;;;;;5137749;27;20431;-90
2022/03/29 03:57:24;;;;;;;10.17;7.07;;;;;;;;;;5138025;27;20789;-91
2022/03/29 03:59:55;;;;;;;9.77;7.73;;;;;;;;;;5134072;27;20430;-90
2022/03/29 04:02:22;;;;;;;13.10;9.50;;;;;;;;;;5134606;27;20431;-94
2022/03/29 04:04:49;;;;;;;12.03;8.27;;;;;;;;;;5137698;27;20438;-89
2022/03/29 04:07:16;;;;;;;18.60;10.00;;;;;;;;;;5137801;27;20479;-94
2022/03/29 04:09:43;;;;;;;14.10;9.10;;;;;;;;;;5137733;27;20448;-94
2022/03/29 04:12:11;;;;;;;14.30;9.13;;;;;;;;;;5134213;27;20523;-90
2022/03/29 04:14:39;;;;;;;12.30;8.10;;;9.30;84.10;;;;;;5136865;27;20442;-91
2022/03/29 04:17:08;;;;;;;13.90;9.23;;;;;;;;;;5134379;27;20458;-89
2022/03/29 04:19:35;;;;;;;13.83;8.83;;;;;;;;;;5137316;27;20867;-90
2022/03/29 04:22:02;;;;;;;14.30;8.77;;;;;;;;;;5137306;27;20435;-90
2022/03/29 04:24:29;;;;;;;16.10;10.40;;;;;;;;;;5134182;27;20427;-93
2022/03/29 04:26:57;;;;;;;12.73;8.87;;;;;;;;;;5137822;27;20482;-90
2022/03/29 04:29:24;;;;;;;16.63;8.63;;;;;;;;;;5137355;27;21023;-89
2022/03/29 04:31:53;;;;;;;13.60;8.90;;;9.00;90.20;;;;;;5133456;27;20454;-90
2022/03/29 04:34:20;;;;;;;14.37;9.50;;;;;;;;;;5135070;27;20480;-94
2022/03/29 04:36:47;;;;;;;12.40;8.20;;;;;;;;;;5137200;27;20435;-94
2022/03/29 04:39:14;;;;;;;13.03;8.60;;;;;;;;;;5137573;27;20436;-92
2022/03/29 04:41:42;;;;;;;15.30;8.70;;;;;;;;;;5133082;27;20507;-93
2022/03/29 04:44:09;;;;;;;15.63;8.83;;;;;;;;;;5136803;27;20423;-89
2022/03/29 04:46:36;;;;;;;12.40;7.70;;;;;;;;;;5137475;27;20475;-92
2022/03/29 04:49:04;;;;;;;15.10;9.13;;;;;;;;;;5138586;27;20804;-92
2022/03/29 04:51:31;;;;;;;11.83;8.33;;;;;;;;;;5137695;27;20430;-94
2022/03/29 04:53:59;;;;;;;17.83;8.07;;;;;;;;;;5137893;27;20919;-90
2022/03/29 04:56:26;;;;;;;16.10;9.60;;;;;;;;;;5133757;27;20514;-92
2022/03/29 04:58:53;;;;;;;10.30;8.30;;;;;;;;;;5136415;27;20953;-89
2022/03/29 05:01:20;;;;;;;12.40;8.17;;;;;;;;;;5137326;27;20450;-93
2022/03/29 05:03:47;;;;;;;18.90;10.50;;;;;;;;;;5137297;27;20434;-92
2022/03/29 05:06:16;;;;;;;14.20;8.77;;;8.20;94.40;;;;;;5133179;27;20451;-92
2022/03/29 05:08:43;;;;;;;15.90;9.03;;;;;;;;;;5137944;27;20439;-92
2022/03/29 05:11:10;;;;;;;11.10;7.80;;;;;;;;;;5130651;27;20478;-90
2022/03/29 05:13:37;;;;;;;12.93;8.70;;;;;;;;;;5136256;27;20427;-92
2022/03/29 05:16:05;;;;;;;14.93;10.50;;;;;;;;;;5130994;27;20443;-92
2022/03/29 05:18:32;;;;;;;13.10;8.97;;;;;;;;;;5136691;27;20434;-91
2022/03/29 05:20:59;;;;;;;16.63;9.77;;;;;;;;;;5132295;27;20458;-94
2022/03/29 05:23:27;;;;;;;13.80;9.37;;;8.10;95.80;;;;;;5143840;27;20438;-92
2022/03/29 05:25:54;;;;;;;18.73;10.20;;;;;;;;;;5144947;27;20423;-96
2022/03/29 05:28:21;;;;;;;17.97;11.03;;;;;;;;;;5136435;27;20494;-96
2022/03/29 05:30:49;;;;;;;16.33;10.23;;;;;;;;;;5142368;27;20446;-95
2022/03/29 05:33:18;;;;;;;14.63;10.57;;;;;;;;;;5141167;27;20440;-94
2022/03/29 05:35:45;;;;;;;15.43;8.50;;;;;;;;;;5140473;27;20973;-95
2022/03/29 05:38:12;;;;;;;13.83;8.77;;;;;;;;;;5145172;27;20432;-95
2022/03/29 05:40:41;;;;;;;18.60;8.80;;;;;;;;;;5141293;27;20435;-95
2022/03/29 05:43:14;;;;;;;16.93;10.40;;;8.00;98.70;;;;;;5144945;27;20451;-96
2022/03/29 05:45:42;;;;;;;25.23;13.90;;;;;;;;;;5141263;27;20472;-95
2022/03/29 05:50:55;;;;;;;20.33;11.20;;;;;;;;;;5143397;27;20438;-94
2022/03/29 05:53:23;;;;;;;27.77;13.23;;;;;;;;;;5138477;27;20451;-94
2022/03/29 05:55:52;;;;;;;22.33;13.10;;;8.30;99.90;;;;;;5131213;27;20455;-95
2022/03/29 05:58:20;;;;;;;27.13;11.93;;;;;;;;;;5137787;27;20439;-94
2022/03/29 06:00:47;;;;;;;22.73;12.67;;;;;;;;;;5136504;27;20439;-94
2022/03/29 06:03:14;;;;;;;22.77;12.23;;;;;;;;;;5139533;27;20440;-90
2022/03/29 06:05:42;;;;;;;18.53;11.50;;;;;;;;;;5137174;27;20434;-89
2022/03/29 06:08:10;;;;;;;19.33;10.70;;;;;;;;;;5135710;27;20543;-94
2022/03/29 06:10:38;;;;;;;21.03;11.87;;;;;;;;;;5135420;27;20967;-92
2022/03/29 06:13:08;;;;;;;25.13;10.63;;;8.60;99.90;;;;;;5111590;28;20486;-93
2022/03/29 06:15:36;;;;;;;21.73;11.80;;;;;;;;;;5114201;28;20878;-92
2022/03/29 06:18:03;;;;;;;19.30;10.87;;;;;;;;;;5109421;28;20456;-95
2022/03/29 06:20:31;;;;;;;17.67;11.10;;;;;;;;;;5115558;28;20443;-93
2022/03/29 06:22:58;;;;;;;21.83;11.20;;;;;;;;;;5114829;28;20440;-92
2022/03/29 06:25:25;;;;;;;19.97;12.37;;;;;;;;;;5114591;28;20462;-92
2022/03/29 06:27:54;;;;;;;17.70;12.03;;;;;;;;;;5114375;28;21021;-92
2022/03/29 06:30:22;;;;;;;22.60;12.83;;;9.30;99.90;;;;;;5111786;28;20824;-89
2022/03/29 06:32:50;;;;;;;20.80;12.40;;;;;;;;;;5116023;28;20448;-89
2022/03/29 06:35:21;;;;;;;19.43;12.07;;;9.50;99.40;;;;;;5115716;28;20408;-88
2022/03/29 06:37:48;;;;;;;17.80;11.00;;;;;;;;;;5113993;28;20448;-90
2022/03/29 06:40:15;;;;;;;22.63;12.50;;;;;;;;;;5118463;28;20939;-92
2022/03/29 06:42:43;;;;;;;17.97;10.60;;;;;;;;;;5117209;28;20451;-91
2022/03/29 06:45:11;;;;;;;18.97;11.40;;;9.80;97.40;;;;;;5111447;28;20429;-92
2022/03/29 06:47:41;;;;;;;21.07;11.17;;;9.80;96.30;;;;;;5108940;28;20828;-90
2022/03/29 06:50:10;;;;;;;16.63;11.70;;;9.90;96.30;;;;;;5105309;28;20946;-92
2022/03/29 06:52:37;;;;;;;17.93;10.80;;;;;;;;;;5110019;28;20543;-92
2022/03/29 06:55:05;;;;;;;17.40;11.87;;;10.30;97.50;;;;;;5114426;28;20451;-91
2022/03/29 06:57:32;;;;;;;20.40;11.80;;;;;;;;;;5114185;28;20437;-92
2022/03/29 06:59:59;;;;;;;17.93;11.90;;;;;;;;;;5113018;28;20458;-92
2022/03/29 07:02:28;;;;;;;22.10;11.80;;;;;;;;;;5118068;28;20934;-91
2022/03/29 07:04:56;;;;;;;21.87;11.73;;;10.60;96.60;;;;;;5118300;28;20439;-91
2022/03/29 07:07:23;;;;;;;18.53;11.57;;;;;;;;;;5117801;28;20475;-91
2022/03/29 07:12:47;;;;;;;18.80;12.60;;;11.10;96.10;;;;;;5134111;27;20482;-91
2022/03/29 07:15:14;;;;;;;25.07;14.30;;;;;;;;;;5134477;27;20530;-90
2022/03/29 07:17:41;;;;;;;18.47;13.10;;;;;;;;;;5138529;27;20442;-90
2022/03/29 07:20:11;;;;;;;16.77;11.07;;;11.50;94.70;;;;;;5138017;27;20453;-90
2022/03/29 07:22:38;;;;;;;18.03;11.73;;;;;;;;;;5131083;27;20463;-88
2022/03/29 07:25:05;;;;;;;17.80;11.20;;;;;;;;;;5137994;27;20439;-91
2022/03/29 07:27:32;;;;;;;17.67;10.87;;;;;;;;;;5137853;27;20487;-91
2022/03/29 07:30:00;;;;;;;18.53;11.53;;;;;;;;;;5137549;27;20423;-91
2022/03/29 07:32:28;;;;;;;21.40;10.33;;;;;;;;;;5138018;27;20451;-91
2022/03/29 07:34:55;;;;;;;14.30;10.20;;;;;;;;;;5134740;27;20481;-90
2022/03/29 07:37:24;;;;;;;17.10;11.10;;;12.70;89.60;;;;;;5134036;27;20522;-91
2022/03/29 07:39:53;;;;;;;16.53;10.83;;;12.90;88.50;;;;;;5138319;27;20450;-89
2022/03/29 07:42:22;;;;;;;14.67;10.40;;;;;;;;;;5133753;27;20443;-91
2022/03/29 07:44:50;;;;;;;16.00;10.17;;;;;;;;;;5136888;27;20443;-92
2022/03/29 07:47:19;;;;;;;15.50;10.40;;;13.20;84.40;;;;;;5137830;27;20544;-91
2022/03/29 07:49:46;;;;;;;16.13;10.60;;;;;;;;;;5137526;27;20447;-89
2022/03/29 07:52:13;;;;;;;12.87;9.83;;;;;;;;;;5137353;27;20513;-91
2022/03/29 07:54:41;;;;;;;15.50;10.77;;;13.70;81.00;;;;;;5138046;27;20447;-93
2022/03/29 07:57:09;;;;;;;18.30;11.23;;;;;;;;;;5134012;27;20948;-93
2022/03/29 07:59:37;;;;;;;14.70;9.20;;;13.80;81.60;;;;;;5133410;27;20438;-92
2022/03/29 08:02:05;;;;;;;13.93;9.90;;;14.20;77.90;;;;;;5133106;27;20991;-93
2022/03/29 08:04:32;;;;;;;14.50;9.33;;;;;;;;;;5137865;27;20435;-91
2022/03/29 08:06:59;;;;;;;15.40;10.90;;;;;;;;;;5137195;27;20451;-92
2022/03/29 08:09:27;;;;;;;15.77;10.30;;;14.70;75.80;;;;;;5137983;27;20456;-91
2022/03/29 08:11:56;;;;;;;29.30;12.90;;;;;;;;;;5136605;27;20478;-89
2022/03/29 08:14:24;;;;;;;19.10;11.47;;;;;;;;;;5133468;27;20455;-91
2022/03/29 08:16:53;;;;;;;18.63;11.67;;;15.80;70.40;;;;;;5137201;27;20443;-91
2022/03/29 08:19:20;;;;;;;19.87;11.57;;;;;;;;;;5136860;27;20430;-92
2022/03/29 08:21:50;;;;;;;19.67;12.30;;;;;;;;;;5137543;27;20431;-92
2022/03/29 08:24:18;;;;;;;25.10;12.60;;;15.60;73.40;;;;;;5137480;27;20431;-94
2022/03/29 08:26:45;;;;;;;22.37;12.50;;;;;;;;;;5134229;27;20474;-94
2022/03/29 08:29:15;;;;;;;27.10;12.70;;;15.20;74.80;;;;;;5133069;27;20486;-95
2022/03/29 08:31:42;;;;;;;15.77;11.90;;;;;;;;;;5133802;27;20480;-93
2022/03/29 08:34:10;;;;;;;15.70;11.13;;;;;;;;;;5136873;27;20890;-92
2022/03/29 08:36:38;;;;;;;15.77;10.77;;;;;;;;;;5130263;27;20500;-92
2022/03/29 08:39:05;;;;;;;17.27;10.50;;;;;;;;;;5137280;27;20432;-93
2022/03/29 08:41:37;;;;;;;15.83;11.27;;;15.10;76.50;;;;;;5134276;27;20468;-95
2022/03/29 08:44:04;;;;;;;21.73;10.80;;;;;;;;;;5133595;27;20450;-93
2022/03/29 08:46:35;;;;;;;14.70;11.50;;;14.90;76.10;;;;;;5138110;27;20439;-93
2022/03/29 08:49:04;;;;;;;15.60;11.80;;;14.90;75.10;;;;;;5133740;27;20521;-92
2022/03/29 08:51:31;;;;;;;17.70;11.37;;;15.40;76.10;;;;;;5131064;27;20461;-92
2022/03/29 08:53:58;;;;;;;18.40;11.47;;;;;;;;;;5137600;27;20435;-93
2022/03/29 08:56:25;;;;;;;19.30;11.47;;;;;;;;;;5137358;27;20914;-92
2022/03/29 08:58:53;;;;;;;16.50;11.10;;;;;;;;;;5134771;27;20474;-92
2022/03/29 09:01:21;;;;;;;19.60;12.80;;;;;;;;;;5138686;27;20468;-95
2022/03/29 09:04:10;;;;;;;13.83;11.20;;;16.80;69.20;;;;;;5136535;27;20945;-91
2022/03/29 09:06:58;;;;;;;18.60;13.07;;;16.80;68.90;;;;;;5136418;27;20902;-92
2022/03/29 09:09:28;;;;;;;16.33;12.60;;;17.20;67.30;;;;;;5132246;27;20482;-92
2022/03/29 09:11:56;;;;;;;13.33;10.83;;;;;;;;;;5133348;27;20879;-92
2022/03/29 09:14:23;;;;;;;16.60;12.23;;;;;;;;;;5132850;27;20546;-91
2022/03/29 09:16:51;;;;;;;20.03;13.27;;;17.60;68.80;;;;;;5136021;27;20807;-91
2022/03/29 09:19:21;;;;;;;18.53;12.17;;;17.60;67.20;;;;;;5136539;27;20863;-92
2022/03/29 09:21:49;;;;;;;19.80;11.87;;;;;;;;;;5133246;27;20818;-93
2022/03/29 09:24:18;;;;;;;16.73;11.80;;;17.90;63.80;;;;;;5136306;27;20488;-91
2022/03/29 09:26:47;;;;;;;17.10;12.20;;;18.00;63.20;;;;;;5135954;27;20477;-91
2022/03/29 09:29:16;;;;;;;15.17;12.07;;;18.00;63.60;;;;;;5135610;27;20493;-91
2022/03/29 09:31:43;;;;;;;14.63;12.47;;;;;;;;;;5131347;27;20462;-91
2022/03/29 09:34:16;;;;;;;17.87;12.43;;;18.50;62.60;;;;;;5136569;27;20439;-94
2022/03/29 09:36:48;;;;;;;20.00;11.87;;;18.20;62.10;;;;;;5132704;27;20451;-92
2022/03/29 09:39:30;;;;;;;22.33;12.43;;;17.80;63.10;;;;;;5149929;27;20462;-92
2022/03/29 09:41:59;;;;;;;17.20;11.30;;;17.90;61.90;;;;;;5147689;27;20461;-91
2022/03/29 09:44:35;;;;;;;15.97;12.07;;;18.20;61.40;;;;;;5135325;27;20428;-92
2022/03/29 09:47:04;;;;;;;15.33;11.00;;;17.80;61.60;;;;;;5135604;27;20471;-92
2022/03/29 09:49:48;;;;;;;15.27;12.30;;;18.40;61.30;;;;;;5132510;27;20487;-91
2022/03/29 09:52:18;;;;;;;16.77;11.83;;;18.30;61.70;;;;;;5135937;27;20961;-92
2022/03/29 09:55:06;;;;;;;14.60;10.90;;;18.50;56.80;;;;;;5130539;27;20451;-92
2022/03/29 09:57:38;;;;;;;11.37;10.20;;;18.50;56.40;;;;;;5135482;27;20481;-93
2022/03/29 10:00:07;;;;;;;18.30;9.40;;;18.40;58.10;;;;;;5134839;27;20439;-92
2022/03/29 10:02:36;;;;;;;16.73;9.67;;;18.10;58.50;;;;;;5135476;27;20447;-94
2022/03/29 10:05:03;;;;;;;11.03;8.60;;;;;;;;;;5135852;27;20439;-93
2022/03/29 10:07:42;;;;;;;12.17;9.20;;;18.10;57.70;;;;;;5132448;27;20445;-92
2022/03/29 10:10:09;;;;;;;14.70;10.60;;;;;;;;;;5129982;27;20953;-92
2022/03/29 10:12:37;;;;;;;14.80;10.37;;;18.20;59.20;;;;;;5131949;27;20904;-93
2022/03/29 10:15:06;;;;;;;12.67;10.43;;;;;;;;;;5135182;27;20453;-92
2022/03/29 10:17:34;;;;;;;12.27;9.70;;;;;;;;;;5132398;27;20948;-93
2022/03/29 10:20:01;;;;;;;12.80;9.13;;;19.10;55.00;;;;;;5135670;27;20430;-91
2022/03/29 10:22:29;;;;;;;18.43;10.43;;;;;;;;;;5133698;27;20447;-91
2022/03/29 10:24:57;;;;;;;11.50;9.43;;;18.70;55.70;;;;;;5129096;27;20453;-90
2022/03/29 10:27:24;;;;;;;10.10;8.43;;;17.80;57.10;;;;;;5135438;27;20459;-91
2022/03/29 10:29:52;;;;;;;11.93;9.60;;;;;;;;;;5128895;28;20489;-92
2022/03/29 10:32:29;;;;;;;12.70;9.27;;;17.90;58.80;;;;;;5135623;28;20950;-92
2022/03/29 10:35:05;;;;;;;13.37;9.10;;;17.90;57.90;;;;;;5136322;27;20451;-92
2022/03/29 10:37:52;;;;;;;16.03;10.30;;;18.00;57.10;;;;;;5139099;27;20955;-90
2022/03/29 10:40:36;;;;;;;15.90;9.90;;;18.10;57.60;;;;;;5139686;27;20453;-93
2022/03/29 10:43:28;;;;;;;21.37;10.63;;;18.70;58.00;;;;;;5139366;27;20462;-91
2022/03/29 10:45:55;;;;;;;18.60;11.67;;;;;;;;;;5135847;27;20453;-90
2022/03/29 10:48:22;;;;;;;15.17;12.90;;;;;;;;;;5135409;27;20482;-92
2022/03/29 10:51:08;;;;;;;17.00;12.20;;;19.00;59.60;;;;;;5137785;27;20465;-91
2022/03/29 10:53:46;;;;;;;14.27;12.37;;;;;;;;;;5135272;27;20469;-89
2022/03/29 10:56:23;;;;;;;16.43;12.30;;;18.20;58.70;;;;;;5138394;27;20450;-92
2022/03/29 10:59:16;;;;;;;19.20;12.57;;;18.30;57.90;;;;;;5136114;27;20555;-90
2022/03/29 11:01:43;;;;;;;23.70;12.87;;;;;;;;;;5140379;27;20443;-90
2022/03/29 11:04:20;;;;;;;17.20;12.37;;;18.60;58.10;;;;;;5140471;27;20435;-91
2022/03/29 11:07:19;;;;;;;18.60;13.00;;;18.40;56.90;;;;;;5138401;27;20446;-92
2022/03/29 11:09:47;;;;;;;30.83;17.70;;;18.40;58.20;;;;;;5140184;27;20539;-93
2022/03/29 11:12:39;;;;;;;16.07;12.50;;;18.20;58.70;;;;;;5138850;27;20474;-92
2022/03/29 11:15:40;;;;;;;15.97;12.50;;;18.30;58.70;;;;;;5138149;27;20464;-95
2022/03/29 11:18:49;;;;;;;19.33;13.43;;;18.30;58.50;;;;;;5135702;27;20446;-92
2022/03/29 11:21:43;;;;;;;18.83;13.07;;;18.70;60.30;;;;;;5136063;27;20430;-93
2022/03/29 11:24:13;;;;;;;16.37;13.50;;;18.70;60.30;;;;;;5138220;27;20561;-91
2022/03/29 11:26:56;;;;;;;17.17;12.43;;;18.40;57.80;;;;;;5135270;27;20904;-92
2022/03/29 11:29:25;;;;;;;14.80;12.40;;;;;;;;;;5137340;27;20474;-90
2022/03/29 11:31:54;;;;;;;22.97;13.77;;;;;;;;;;5138277;27;20439;-90
2022/03/29 11:34:21;;;;;;;19.53;13.57;;;;;;;;;;5135219;27;21007;-91
2022/03/29 11:36:49;;;;;;;28.20;14.53;;;;;;;;;;5139050;27;20444;-92
2022/03/29 11:39:22;;;;;;;14.97;12.53;;;18.40;59.70;;;;;;5139744;27;20443;-90
2022/03/29 11:41:51;;;;;;;16.57;12.73;;;;;;;;;;5129837;27;20461;-91
2022/03/29 11:44:18;;;;;;;18.00;13.17;;;;;;;;;;5135017;27;20522;-90
2022/03/29 11:46:49;;;;;;;17.07;12.60;;;19.50;59.40;;;;;;5134809;27;20443;-91
2022/03/29 11:49:27;;;;;;;21.73;16.00;;;18.60;58.20;;;;;;5134458;27;20478;-90
2022/03/29 11:52:06;;;;;;;22.07;13.93;;;18.10;59.20;;;;;;5140644;27;20446;-93
2022/03/29 11:54:39;;;;;;;18.17;14.10;;;18.70;59.10;;;;;;5140534;27;20453;-90
2022/03/29 11:57:18;;;;;;;21.27;14.23;;;18.80;60.30;;;;;;5138278;27;20446;-90
2022/03/29 11:59:46;;;;;;;23.23;13.70;;;;;;;;;;5138744;27;20428;-90
2022/03/29 12:02:14;;;;;;;19.00;13.93;;;19.20;58.50;;;;;;5138741;27;20443;-88
2022/03/29 12:04:41;;;;;;;23.37;13.37;;;;;;;;;;5137620;27;20821;-89
2022/03/29 12:07:09;;;;;;;18.30;14.30;;;;;;;;;;5138959;27;20447;-89
2022/03/29 12:09:36;;;;;;;20.03;14.23;;;;;;;;;;5138867;27;20490;-90
2022/03/29 12:12:03;;;;;;;12.57;9.60;;;;;;;;;;5151827;27;20489;-89
2022/03/29 12:14:31;;;;;;;12.90;9.83;;;18.10;53.20;;;;;;5152935;27;20443;-90
2022/03/29 12:17:03;;;;;;;11.00;9.10;;;18.20;54.10;;;;;;5139160;27;20447;-90
2022/03/29 12:19:32;;;;;;;12.80;8.70;;;18.40;54.90;;;;;;5130243;27;20478;-90
2022/03/29 12:22:06;;;;;;;17.20;9.60;;;18.30;52.90;;;;;;5138657;27;20458;-90
2022/03/29 12:24:35;;;;;;;11.30;8.77;;;18.00;53.30;;;;;;5133640;27;20447;-91
2022/03/29 12:27:04;;;;;;;9.83;7.37;;;17.50;51.80;;;;;;5110793;28;20460;-90
2022/03/29 12:29:35;;;;;;;9.87;8.50;;;17.40;53.00;;;;;;5111813;28;20487;-88
2022/03/29 12:32:03;;;;;;;18.43;9.20;;;17.80;53.30;;;;;;5117118;28;20443;-89
2022/03/29 12:34:33;;;;;;;12.93;8.67;;;18.20;53.50;;;;;;5115837;28;20451;-89
2022/03/29 12:37:02;;;;;;;13.13;9.90;;;18.40;53.10;;;;;;5115921;28;20961;-90
2022/03/29 12:39:34;;;;;;;12.77;9.97;;;18.30;51.80;;;;;;5112331;28;20444;-89
2022/03/29 12:42:16;;;;;;;11.37;10.00;;;18.40;49.80;;;;;;5114251;28;20943;-90
2022/03/29 12:44:46;;;;;;;11.13;9.47;;;18.00;49.20;;;;;;5109193;28;20467;-90
2022/03/29 12:47:14;;;;;;;15.57;8.50;;;17.90;50.90;;;;;;5115797;28;20485;-91
2022/03/29 12:49:45;;;;;;;13.70;9.80;;;17.60;50.00;;;;;;5116436;28;21060;-91
2022/03/29 12:52:13;;;;;;;14.57;8.80;;;17.80;51.40;;;;;;5113188;28;20466;-90
2022/03/29 12:54:41;;;;;;;14.80;8.30;;;17.90;49.20;;;;;;5115572;28;20452;-91
2022/03/29 12:57:11;;;;;;;10.03;9.00;;;18.00;51.60;;;;;;5115331;28;20479;-91
2022/03/29 12:59:40;;;;;;;14.20;7.90;;;17.80;49.30;;;;;;5115685;28;20440;-91
2022/03/29 13:02:28;;;;;;;12.70;8.00;;;17.30;48.60;;;;;;5113838;28;20458;-91
2022/03/29 13:05:01;;;;;;;16.13;9.27;;;17.40;50.10;;;;;;5107452;28;20947;-91
2022/03/29 13:07:41;;;;;;;9.70;8.40;;;17.30;89.50;;;;;;5113125;28;20452;-90
2022/03/29 13:10:11;;;;;;;7.57;5.33;;;17.40;50.60;;;;;;5110067;28;20488;-91
2022/03/29 13:13:03;;;;;;;12.03;9.07;;;17.30;77.70;;;;;;5112485;28;20484;-90
2022/03/29 13:15:46;;;;;;;10.97;8.80;;;18.20;80.70;;;;;;5092337;28;20456;-91
2022/03/29 13:18:22;;;;;;;12.73;9.67;;;17.80;83.20;;;;;;5115580;28;20447;-91
2022/03/29 13:20:51;;;;;;;13.93;7.80;;;17.90;49.00;;;;;;5116233;28;20442;-90
2022/03/29 13:23:32;;;;;;;14.77;9.50;;;18.00;49.20;;;;;;5116412;28;20448;-91
2022/03/29 13:25:59;;;;;;;13.80;8.63;;;;;;;;;;5115629;28;20474;-90
2022/03/29 13:28:27;;;;;;;10.77;7.43;;;18.00;49.60;;;;;;5115918;28;20943;-91
2022/03/29 13:30:55;;;;;;;14.60;8.70;;;;;;;;;;5115870;28;20585;-91
2022/03/29 13:33:22;;;;;;;12.57;9.13;;;;;;;;;;5115992;28;20450;-94
2022/03/29 13:35:51;;;;;;;15.20;9.20;;;;;;;;;;5113237;28;20887;-89
2022/03/29 13:38:19;;;;;;;11.47;8.53;;;;;;;;;;5116530;28;20520;-89
2022/03/29 13:40:46;;;;;;;13.40;7.67;;;;;;;;;;5116241;28;20451;-91
2022/03/29 13:43:13;;;;;;;14.67;8.07;;;18.80;49.50;;;;;;5115864;28;20801;-89
2022/03/29 13:45:41;;;;;;;10.17;8.03;;;;;;;;;;5115596;28;20451;-89
2022/03/29 13:48:08;;;;;;;10.70;8.30;;;;;;;;;;5116681;28;20451;-89
2022/03/29 13:50:36;;;;;;;15.87;8.33;;;;;;;;;;5115151;28;20499;-90
2022/03/29 13:53:04;;;;;;;14.83;8.70;;;18.50;50.00;;;;;;5115364;28;20456;-90
2022/03/29 13:55:34;;;;;;;8.83;7.83;;;18.80;50.70;;;;;;5112935;28;20448;-90
2022/03/29 13:58:04;;;;;;;13.30;7.80;;;;;;;;;;5112848;28;20460;-90